Time;durP1;ratioP1;P1;durP2;ratioP2;P2;SDS_P1;SDS_P2;PMS_P1;PMS_P2;Temp;Humidity;BMP_temperature;BMP_pressure;BME280_temperature;BME280_humidity;BME280_pressure;Samples;Min_cycle;Max_cycle;Signal;HPM_P1;HPM_P2
2021/10/24 00:02:11;;;;;;;6.20;4.43;;;7.20;99.90;;;;;;5096911;28;20233;-78
2021/10/24 00:04:38;;;;;;;6.67;4.97;;;7.20;99.90;;;;;;5097215;28;20282;-79
2021/10/24 00:07:05;;;;;;;5.60;5.07;;;7.20;99.90;;;;;;5096648;28;20209;-77
2021/10/24 00:09:32;;;;;;;6.97;5.60;;;7.10;99.90;;;;;;5097401;28;20208;-76
2021/10/24 00:11:59;;;;;;;8.57;4.93;;;7.20;99.90;;;;;;5096706;28;20233;-77
2021/10/24 00:14:27;;;;;;;7.00;4.77;;;7.10;99.90;;;;;;5097360;28;20201;-76
2021/10/24 00:16:55;;;;;;;5.97;4.73;;;7.00;99.90;;;;;;5096552;28;20205;-77
2021/10/24 00:19:22;;;;;;;6.27;4.73;;;7.00;99.90;;;;;;5096874;28;20262;-77
2021/10/24 00:21:49;;;;;;;7.73;5.47;;;7.00;99.90;;;;;;5096544;28;20212;-75
2021/10/24 00:24:16;;;;;;;7.83;5.37;;;7.10;99.90;;;;;;5097151;28;20225;-78
2021/10/24 00:26:44;;;;;;;6.20;4.77;;;7.00;99.90;;;;;;5097534;28;20392;-77
2021/10/24 00:29:11;;;;;;;6.60;5.23;;;7.10;99.90;;;;;;5096355;28;20205;-78
2021/10/24 00:31:38;;;;;;;7.47;5.30;;;7.10;99.90;;;;;;5097027;28;20283;-78
2021/10/24 00:34:06;;;;;;;6.43;4.80;;;7.00;99.90;;;;;;5096412;28;20205;-78
2021/10/24 00:36:33;;;;;;;5.37;4.43;;;7.00;99.90;;;;;;5096799;28;20657;-78
2021/10/24 00:39:00;;;;;;;9.80;5.93;;;7.10;99.90;;;;;;5096314;28;20255;-78
2021/10/24 00:41:29;;;;;;;5.60;4.80;;;7.00;99.90;;;;;;5096565;28;20251;-78
2021/10/24 00:43:56;;;;;;;5.23;4.47;;;7.00;99.90;;;;;;5096527;28;20292;-77
2021/10/24 00:46:23;;;;;;;5.70;4.63;;;7.00;99.90;;;;;;5096769;28;20250;-77
2021/10/24 00:48:50;;;;;;;7.67;5.57;;;6.90;99.90;;;;;;5096945;28;20274;-77
2021/10/24 00:51:19;;;;;;;10.07;5.30;;;6.90;99.90;;;;;;5096765;28;20298;-77
2021/10/24 00:53:47;;;;;;;6.27;5.43;;;6.90;99.90;;;;;;5097089;28;20206;-78
2021/10/24 00:56:14;;;;;;;8.57;4.80;;;6.90;99.90;;;;;;5096706;28;20217;-78
2021/10/24 00:58:42;;;;;;;6.10;5.17;;;6.90;99.90;;;;;;5097009;28;20247;-76
2021/10/24 01:01:09;;;;;;;4.60;3.63;;;7.00;99.90;;;;;;5096100;28;20739;-75
2021/10/24 01:03:37;;;;;;;8.43;6.37;;;7.00;99.90;;;;;;5096827;28;20202;-75
2021/10/24 01:06:05;;;;;;;6.13;4.47;;;7.00;99.90;;;;;;5091674;28;20209;-76
2021/10/24 01:08:37;;;;;;;5.57;4.57;;;7.00;99.90;;;;;;5093380;28;20246;-75
2021/10/24 01:11:04;;;;;;;8.13;4.57;;;7.00;99.90;;;;;;5092820;28;20229;-77
2021/10/24 01:13:33;;;;;;;6.03;5.43;;;7.00;99.90;;;;;;5093301;28;20210;-77
2021/10/24 01:16:10;;;;;;;6.03;5.33;;;7.00;99.90;;;;;;5093115;28;20329;-77
2021/10/24 01:18:37;;;;;;;7.57;5.07;;;7.00;99.90;;;;;;5093067;28;20246;-77
2021/10/24 01:21:05;;;;;;;10.57;5.70;;;7.00;99.90;;;;;;5092704;28;20209;-78
2021/10/24 01:23:32;;;;;;;6.83;4.50;;;7.00;99.90;;;;;;5093123;28;20205;-77
2021/10/24 01:26:00;;;;;;;7.43;4.03;;;7.00;99.90;;;;;;5092678;28;20209;-77
2021/10/24 01:28:28;;;;;;;5.77;4.10;;;7.00;99.90;;;;;;5093254;28;20201;-76
2021/10/24 01:30:55;;;;;;;6.50;4.70;;;7.00;99.90;;;;;;5089877;28;20233;-76
2021/10/24 01:33:23;;;;;;;7.17;4.50;;;7.00;99.90;;;;;;5081533;28;20209;-77
2021/10/24 01:35:54;;;;;;;7.67;4.90;;;7.00;99.90;;;;;;5092044;28;20205;-76
2021/10/24 01:38:23;;;;;;;7.00;4.47;;;7.00;99.90;;;;;;5080322;28;20347;-76
2021/10/24 01:40:51;;;;;;;6.83;4.20;;;6.90;99.90;;;;;;5092533;28;20262;-79
2021/10/24 01:43:19;;;;;;;5.60;4.37;;;6.90;99.90;;;;;;5093377;28;20258;-78
2021/10/24 01:45:47;;;;;;;6.10;4.17;;;6.90;99.90;;;;;;5093257;28;20258;-77
2021/10/24 01:48:16;;;;;;;5.13;3.97;;;6.90;99.90;;;;;;5083164;28;20577;-82
2021/10/24 01:50:43;;;;;;;4.57;3.97;;;6.80;99.90;;;;;;5092538;28;20234;-80
2021/10/24 01:53:11;;;;;;;4.13;3.60;;;6.80;99.90;;;;;;5092078;28;20257;-77
2021/10/24 01:55:39;;;;;;;4.93;4.17;;;6.80;99.90;;;;;;5092417;28;20734;-80
2021/10/24 01:58:06;;;;;;;5.47;4.13;;;6.70;99.90;;;;;;5092432;28;20258;-76
2021/10/24 02:00:33;;;;;;;7.50;4.43;;;6.70;99.90;;;;;;5092236;28;20206;-79
2021/10/24 02:03:00;;;;;;;6.37;4.33;;;6.50;99.90;;;;;;5091986;28;20258;-79
2021/10/24 02:05:27;;;;;;;7.10;4.10;;;6.60;99.90;;;;;;5092029;28;20742;-77
2021/10/24 02:07:54;;;;;;;7.23;4.37;;;6.60;99.90;;;;;;5091702;28;20210;-78
2021/10/24 02:10:21;;;;;;;9.13;4.13;;;6.60;99.90;;;;;;5092203;28;20209;-79
2021/10/24 02:12:50;;;;;;;5.40;4.03;;;6.50;99.90;;;;;;5092171;28;20669;-79
2021/10/24 02:15:17;;;;;;;4.83;3.37;;;6.50;99.90;;;;;;5092546;28;20209;-78
2021/10/24 02:17:44;;;;;;;7.23;3.83;;;6.60;99.90;;;;;;5091776;28;20664;-77
2021/10/24 02:20:11;;;;;;;6.63;4.33;;;6.60;99.90;;;;;;5091460;28;20210;-77
2021/10/24 02:22:39;;;;;;;5.93;4.43;;;6.60;99.90;;;;;;5091544;28;20631;-78
2021/10/24 02:25:07;;;;;;;5.67;4.23;;;6.60;99.90;;;;;;5091706;28;20599;-78
2021/10/24 02:27:34;;;;;;;4.63;3.70;;;6.50;99.90;;;;;;5092144;28;20206;-77
2021/10/24 02:30:03;;;;;;;7.23;3.87;;;6.30;99.90;;;;;;5091266;28;20241;-77
2021/10/24 02:32:30;;;;;;;3.37;3.07;;;6.30;99.90;;;;;;5091741;28;20229;-76
2021/10/24 02:34:57;;;;;;;4.20;3.73;;;6.10;99.90;;;;;;5091042;28;20254;-82
2021/10/24 02:37:24;;;;;;;4.13;3.20;;;6.20;99.90;;;;;;5091854;28;20206;-77
2021/10/24 02:39:51;;;;;;;5.10;3.47;;;6.20;99.90;;;;;;5091698;28;20205;-81
2021/10/24 02:42:18;;;;;;;5.40;3.67;;;6.10;99.90;;;;;;5092118;28;20652;-81
2021/10/24 02:44:46;;;;;;;8.17;3.50;;;6.00;99.90;;;;;;5091952;28;20209;-80
2021/10/24 02:47:17;;;;;;;3.70;3.37;;;6.00;99.90;;;;;;5091005;28;20209;-80
2021/10/24 02:49:44;;;;;;;5.03;2.63;;;6.00;99.90;;;;;;5091806;28;20742;-82
2021/10/24 02:52:11;;;;;;;7.43;4.47;;;6.10;99.90;;;;;;5091137;28;20272;-81
2021/10/24 02:54:38;;;;;;;4.90;3.43;;;6.10;99.90;;;;;;5091610;28;20209;-82
2021/10/24 02:57:05;;;;;;;6.77;3.57;;;6.10;99.90;;;;;;5090504;28;20201;-77
2021/10/24 02:59:33;;;;;;;5.40;3.73;;;6.10;99.90;;;;;;5091461;28;20206;-81
2021/10/24 03:02:00;;;;;;;4.97;4.07;;;6.10;99.90;;;;;;5090785;28;20246;-78
2021/10/24 03:04:28;;;;;;;4.10;3.23;;;6.00;99.90;;;;;;5091275;28;20625;-81
2021/10/24 03:06:56;;;;;;;5.60;4.20;;;6.00;99.90;;;;;;5090861;28;20247;-82
2021/10/24 03:09:23;;;;;;;5.97;3.87;;;5.90;99.90;;;;;;5091312;28;20197;-82
2021/10/24 03:11:50;;;;;;;4.20;3.57;;;6.00;99.90;;;;;;5091041;28;20226;-75
2021/10/24 03:14:17;;;;;;;4.17;3.07;;;6.00;99.90;;;;;;5086464;28;20210;-77
2021/10/24 03:16:45;;;;;;;6.57;3.33;;;5.90;99.90;;;;;;5082192;28;20209;-76
2021/10/24 03:19:13;;;;;;;5.33;3.67;;;6.00;99.90;;;;;;5090289;28;20266;-80
2021/10/24 03:21:41;;;;;;;7.47;2.73;;;5.90;99.90;;;;;;5091312;28;20213;-80
2021/10/24 03:24:08;;;;;;;8.50;4.83;;;5.90;99.90;;;;;;5090206;28;20673;-77
2021/10/24 03:26:36;;;;;;;4.60;3.53;;;5.90;99.90;;;;;;5091084;28;20201;-77
2021/10/24 03:29:03;;;;;;;4.63;3.40;;;5.90;99.90;;;;;;5089407;28;20677;-77
2021/10/24 03:31:30;;;;;;;6.13;3.57;;;5.90;99.90;;;;;;5090762;28;20218;-81
2021/10/24 03:33:57;;;;;;;5.13;3.10;;;5.90;99.90;;;;;;5090695;28;20216;-81
2021/10/24 03:36:24;;;;;;;6.53;3.60;;;5.90;99.90;;;;;;5090602;28;20251;-81
2021/10/24 03:38:53;;;;;;;4.80;3.57;;;5.80;99.90;;;;;;5090471;28;20688;-80
2021/10/24 03:41:20;;;;;;;3.90;3.20;;;5.70;99.90;;;;;;5090570;28;20201;-81
2021/10/24 03:43:47;;;;;;;4.37;3.17;;;5.60;99.90;;;;;;5090678;28;20209;-79
2021/10/24 03:46:14;;;;;;;6.70;3.37;;;5.50;99.90;;;;;;5090494;28;20206;-76
2021/10/24 03:48:41;;;;;;;5.97;3.37;;;5.60;99.90;;;;;;5091022;28;20254;-79
2021/10/24 03:51:08;;;;;;;4.43;3.43;;;5.60;99.90;;;;;;5090089;28;20274;-79
2021/10/24 03:53:35;;;;;;;6.07;3.13;;;5.70;99.90;;;;;;5090650;28;20197;-79
2021/10/24 03:56:03;;;;;;;3.90;3.20;;;5.70;99.90;;;;;;5090143;28;20205;-78
2021/10/24 03:58:30;;;;;;;6.77;3.50;;;5.70;99.90;;;;;;5090083;28;20206;-82
2021/10/24 04:00:57;;;;;;;5.33;3.97;;;5.70;99.90;;;;;;5090255;28;20676;-76
2021/10/24 04:03:24;;;;;;;6.03;3.57;;;5.70;99.90;;;;;;5090678;28;20209;-78
2021/10/24 04:05:51;;;;;;;6.93;3.70;;;5.70;99.90;;;;;;5090412;28;20673;-82
2021/10/24 04:08:19;;;;;;;5.50;3.60;;;5.80;99.90;;;;;;5090890;28;20205;-79
2021/10/24 04:10:46;;;;;;;6.40;3.50;;;5.70;99.90;;;;;;5090358;28;20213;-80
2021/10/24 04:13:14;;;;;;;4.53;3.27;;;5.70;99.90;;;;;;5089744;28;20708;-78
2021/10/24 04:15:41;;;;;;;5.67;3.77;;;5.80;99.90;;;;;;5090160;28;20213;-77
2021/10/24 04:18:09;;;;;;;7.03;3.37;;;5.80;99.90;;;;;;5089961;28;20564;-77
2021/10/24 04:20:36;;;;;;;5.53;4.37;;;5.70;99.90;;;;;;5090380;28;20205;-78
2021/10/24 04:23:03;;;;;;;4.80;3.97;;;5.70;99.90;;;;;;5089705;28;20698;-76
2021/10/24 04:25:30;;;;;;;5.67;2.80;;;5.70;99.90;;;;;;5090186;28;20259;-73
2021/10/24 04:27:57;;;;;;;4.17;3.37;;;5.70;99.90;;;;;;5089722;28;20205;-76
2021/10/24 04:30:25;;;;;;;4.70;3.83;;;5.70;99.90;;;;;;5090293;28;20216;-83
2021/10/24 04:32:53;;;;;;;3.67;3.13;;;5.70;99.90;;;;;;5089602;28;20237;-76
2021/10/24 04:35:20;;;;;;;4.93;3.67;;;5.60;99.90;;;;;;5090341;28;20270;-76
2021/10/24 04:37:48;;;;;;;4.13;3.00;;;5.60;99.90;;;;;;5090350;28;20270;-79
2021/10/24 04:40:15;;;;;;;4.10;3.27;;;5.60;99.90;;;;;;5091728;28;20210;-79
2021/10/24 04:42:42;;;;;;;4.47;2.67;;;5.60;99.90;;;;;;5093854;28;20205;-80
2021/10/24 04:45:10;;;;;;;6.07;3.33;;;5.60;99.90;;;;;;5093676;28;20591;-76
2021/10/24 04:47:38;;;;;;;3.03;2.43;;;5.60;99.90;;;;;;5093838;28;20205;-76
2021/10/24 04:50:08;;;;;;;5.70;3.30;;;5.60;99.90;;;;;;5093146;28;20205;-77
2021/10/24 04:52:37;;;;;;;4.70;3.07;;;5.60;99.90;;;;;;5093778;28;20240;-80
2021/10/24 04:55:04;;;;;;;3.07;2.57;;;5.60;99.90;;;;;;5092684;28;20296;-80
2021/10/24 04:57:31;;;;;;;4.03;3.53;;;5.50;99.90;;;;;;5093780;28;20202;-80
2021/10/24 04:59:58;;;;;;;3.73;2.73;;;5.40;99.90;;;;;;5093236;28;20621;-80
2021/10/24 05:02:25;;;;;;;5.80;3.80;;;5.40;99.90;;;;;;5093154;28;20202;-80
2021/10/24 05:04:54;;;;;;;5.40;3.53;;;5.40;99.90;;;;;;5093302;28;20205;-76
2021/10/24 05:07:21;;;;;;;4.93;3.03;;;5.30;99.90;;;;;;5093303;28;20262;-79
2021/10/24 05:09:48;;;;;;;3.87;3.47;;;5.30;99.90;;;;;;5093763;28;20209;-79
2021/10/24 05:12:15;;;;;;;4.53;3.53;;;5.40;99.90;;;;;;5093058;28;20270;-83
2021/10/24 05:14:41;;;;;;;4.53;4.13;;;5.30;99.90;;;;;;5093722;28;20243;-80
2021/10/24 05:17:08;;;;;;;5.97;3.90;;;5.20;99.90;;;;;;5092947;28;20213;-76
2021/10/24 05:19:35;;;;;;;6.77;3.70;;;5.10;99.90;;;;;;5093377;28;20206;-78
2021/10/24 05:22:04;;;;;;;7.07;3.97;;;5.20;99.90;;;;;;5092864;28;20673;-81
2021/10/24 05:24:31;;;;;;;4.60;3.70;;;5.30;99.90;;;;;;5092863;28;20600;-83
2021/10/24 05:26:58;;;;;;;5.60;4.53;;;5.20;99.90;;;;;;5092767;28;20722;-79
2021/10/24 05:29:25;;;;;;;8.07;4.83;;;5.30;99.90;;;;;;5085389;28;20750;-76
2021/10/24 05:31:52;;;;;;;6.23;4.57;;;5.20;99.90;;;;;;5086384;28;20229;-77
2021/10/24 05:34:19;;;;;;;5.50;3.80;;;5.20;99.90;;;;;;5092696;28;20263;-79
2021/10/24 05:36:46;;;;;;;4.73;3.43;;;5.20;99.90;;;;;;5093622;28;20292;-75
2021/10/24 05:39:15;;;;;;;6.37;4.20;;;5.20;99.90;;;;;;5080644;28;20225;-77
2021/10/24 05:41:43;;;;;;;4.33;3.60;;;5.20;99.90;;;;;;5082935;28;20576;-77
2021/10/24 05:44:12;;;;;;;5.27;4.13;;;5.10;99.90;;;;;;5077590;28;20618;-81
2021/10/24 05:46:39;;;;;;;6.63;4.67;;;5.20;99.90;;;;;;5078934;28;20736;-83
2021/10/24 05:49:07;;;;;;;6.63;4.30;;;5.20;99.90;;;;;;5076783;28;20252;-84
2021/10/24 05:51:35;;;;;;;7.97;3.97;;;5.00;99.90;;;;;;5080193;28;20212;-79
2021/10/24 05:54:02;;;;;;;6.23;4.67;;;5.00;99.90;;;;;;5075955;28;20703;-82
2021/10/24 05:56:31;;;;;;;4.77;4.10;;;5.10;99.90;;;;;;5088563;28;20201;-84
2021/10/24 05:58:58;;;;;;;4.77;4.17;;;4.90;99.90;;;;;;5090551;28;20645;-82
2021/10/24 06:01:26;;;;;;;6.50;5.00;;;4.90;99.90;;;;;;5091799;28;20619;-79
2021/10/24 06:03:53;;;;;;;12.03;4.97;;;4.70;99.90;;;;;;5089630;28;20289;-84
2021/10/24 06:06:20;;;;;;;5.73;4.80;;;4.40;99.90;;;;;;5091662;28;20267;-83
2021/10/24 06:08:48;;;;;;;8.70;5.87;;;4.60;99.90;;;;;;5089696;28;20259;-81
2021/10/24 06:11:18;;;;;;;7.30;5.50;;;4.70;99.90;;;;;;5090628;28;20205;-79
2021/10/24 06:13:48;;;;;;;7.13;5.17;;;4.90;99.90;;;;;;5090526;28;20221;-78
2021/10/24 06:16:15;;;;;;;7.23;5.20;;;5.10;99.90;;;;;;5090945;28;20212;-83
2021/10/24 06:18:42;;;;;;;12.23;7.80;;;5.10;99.90;;;;;;5089378;28;20206;-80
2021/10/24 06:21:09;;;;;;;9.40;5.97;;;5.30;99.90;;;;;;5088671;28;20206;-82
2021/10/24 06:23:37;;;;;;;10.53;4.60;;;5.30;99.90;;;;;;5082564;28;20666;-77
2021/10/24 06:26:04;;;;;;;9.23;4.13;;;5.40;99.90;;;;;;5087405;28;20247;-76
2021/10/24 06:28:32;;;;;;;8.57;7.13;;;5.50;99.90;;;;;;5090466;28;20205;-77
2021/10/24 06:31:00;;;;;;;6.70;5.03;;;5.50;99.90;;;;;;5087454;28;20651;-76
2021/10/24 06:33:27;;;;;;;6.20;4.77;;;5.50;99.90;;;;;;5080476;28;20230;-77
2021/10/24 06:35:54;;;;;;;6.77;4.73;;;5.60;99.90;;;;;;5082674;28;20665;-80
2021/10/24 06:38:21;;;;;;;9.23;4.83;;;5.60;99.90;;;;;;5085589;28;20669;-81
2021/10/24 06:40:49;;;;;;;9.43;5.87;;;5.70;99.90;;;;;;5083244;28;20206;-79
2021/10/24 06:43:16;;;;;;;8.03;5.63;;;5.60;99.90;;;;;;5088119;28;20202;-79
2021/10/24 06:45:45;;;;;;;8.90;7.00;;;5.60;99.90;;;;;;5087084;28;20251;-74
2021/10/24 06:48:14;;;;;;;7.83;6.07;;;5.70;99.90;;;;;;5084980;28;20292;-76
2021/10/24 06:50:42;;;;;;;6.40;4.27;;;5.80;99.90;;;;;;5086026;28;20262;-80
2021/10/24 06:53:09;;;;;;;8.20;4.00;;;5.80;99.90;;;;;;5082479;28;20757;-75
2021/10/24 06:55:36;;;;;;;8.17;4.83;;;5.70;99.90;;;;;;5078647;28;20330;-78
2021/10/24 06:58:03;;;;;;;7.57;5.43;;;5.40;99.90;;;;;;5090072;28;20262;-78
2021/10/24 07:00:30;;;;;;;7.03;5.73;;;5.60;99.90;;;;;;5065539;28;20206;-77
2021/10/24 07:02:58;;;;;;;7.87;4.57;;;5.70;99.90;;;;;;5089919;28;20205;-79
2021/10/24 07:05:27;;;;;;;6.13;5.37;;;6.10;99.90;;;;;;5089870;28;20816;-78
2021/10/24 07:07:54;;;;;;;6.97;5.57;;;6.10;99.90;;;;;;5090201;28;20748;-78
2021/10/24 07:10:22;;;;;;;7.33;5.23;;;6.20;99.90;;;;;;5091329;28;20208;-76
2021/10/24 07:12:52;;;;;;;7.23;5.83;;;6.20;99.90;;;;;;5091394;28;20656;-77
2021/10/24 07:15:21;;;;;;;9.17;6.93;;;6.30;99.90;;;;;;5091560;28;20254;-77
2021/10/24 07:17:48;;;;;;;7.40;6.20;;;6.30;99.90;;;;;;5091322;28;20673;-78
2021/10/24 07:20:15;;;;;;;9.60;8.57;;;6.40;99.90;;;;;;5091028;28;20638;-78
2021/10/24 07:22:44;;;;;;;12.27;8.07;;;6.50;99.90;;;;;;5090788;28;20262;-78
2021/10/24 07:25:12;;;;;;;6.83;6.10;;;6.40;99.90;;;;;;5090900;28;20575;-78
2021/10/24 07:27:40;;;;;;;5.03;3.97;;;6.50;99.90;;;;;;5090109;28;20266;-78
2021/10/24 07:30:08;;;;;;;4.93;3.83;;;6.60;99.90;;;;;;5090697;28;20209;-78
2021/10/24 07:32:36;;;;;;;4.87;4.27;;;6.30;99.90;;;;;;5090616;28;20270;-79
2021/10/24 07:35:03;;;;;;;5.87;4.63;;;6.20;99.90;;;;;;5090648;28;20241;-79
2021/10/24 07:37:31;;;;;;;4.33;3.60;;;6.20;99.90;;;;;;5073304;28;20677;-77
2021/10/24 07:39:59;;;;;;;7.20;4.77;;;5.90;99.90;;;;;;5076395;28;20210;-76
2021/10/24 07:42:27;;;;;;;4.90;4.27;;;6.20;99.90;;;;;;5090225;28;20214;-78
2021/10/24 07:44:54;;;;;;;4.80;4.30;;;6.40;99.90;;;;;;5088596;28;20209;-79
2021/10/24 07:47:21;;;;;;;6.93;4.23;;;6.60;99.90;;;;;;5090231;28;20205;-77
2021/10/24 07:49:48;;;;;;;7.23;4.83;;;6.60;99.90;;;;;;5090593;28;20288;-76
2021/10/24 07:52:17;;;;;;;6.57;4.40;;;6.50;99.90;;;;;;5090575;28;20742;-77
2021/10/24 07:54:44;;;;;;;5.20;4.50;;;6.50;99.90;;;;;;5090554;28;20217;-78
2021/10/24 07:57:12;;;;;;;6.80;5.57;;;6.50;99.90;;;;;;5070660;28;20213;-76
2021/10/24 07:59:39;;;;;;;6.90;5.27;;;6.60;99.90;;;;;;5072873;28;20209;-79
2021/10/24 08:02:07;;;;;;;5.70;4.80;;;6.80;99.90;;;;;;5080289;28;20731;-75
2021/10/24 08:04:34;;;;;;;5.97;4.93;;;7.00;99.90;;;;;;5089207;28;20254;-73
2021/10/24 08:07:03;;;;;;;5.40;4.10;;;6.80;99.90;;;;;;5086312;28;20209;-81
2021/10/24 08:09:30;;;;;;;4.10;3.70;;;6.90;99.90;;;;;;5088539;28;20205;-76
2021/10/24 08:11:57;;;;;;;5.27;4.77;;;6.80;99.90;;;;;;5085559;28;20209;-76
2021/10/24 08:14:26;;;;;;;5.73;4.03;;;6.90;99.90;;;;;;5087800;28;20233;-75
2021/10/24 08:16:53;;;;;;;4.60;4.03;;;7.20;99.90;;;;;;5089731;28;20205;-71
2021/10/24 08:19:20;;;;;;;9.67;8.80;;;7.30;99.90;;;;;;5089562;28;20206;-72
2021/10/24 08:21:48;;;;;;;5.87;4.40;;;7.10;99.90;;;;;;5091925;28;20201;-71
2021/10/24 08:24:15;;;;;;;4.70;4.20;;;7.00;99.90;;;;;;5083047;28;20217;-74
2021/10/24 08:26:43;;;;;;;6.23;4.67;;;7.00;99.90;;;;;;5081295;28;20224;-74
2021/10/24 08:29:10;;;;;;;5.03;4.23;;;7.10;99.90;;;;;;5086070;28;20217;-74
2021/10/24 08:31:43;;;;;;;6.17;4.97;;;7.20;99.90;;;;;;5071674;28;20290;-76
2021/10/24 08:34:10;;;;;;;5.70;4.87;;;7.40;99.90;;;;;;5082735;28;20221;-79
2021/10/24 08:36:37;;;;;;;4.80;4.30;;;7.60;99.90;;;;;;5090171;28;20201;-76
2021/10/24 08:39:06;;;;;;;5.10;4.10;;;7.90;99.90;;;;;;5083099;28;20214;-76
2021/10/24 08:41:34;;;;;;;6.30;4.23;;;8.30;99.90;;;;;;5088643;28;20205;-75
2021/10/24 08:44:03;;;;;;;5.00;4.47;;;8.30;99.90;;;;;;5088020;28;20229;-80
2021/10/24 08:46:31;;;;;;;5.30;4.80;;;8.30;99.90;;;;;;5087344;28;20247;-75
2021/10/24 08:49:00;;;;;;;5.93;4.83;;;8.40;99.90;;;;;;5084733;28;20205;-78
2021/10/24 08:51:27;;;;;;;5.53;4.43;;;8.70;99.90;;;;;;5081434;28;20629;-74
2021/10/24 08:53:55;;;;;;;5.83;4.30;;;8.90;99.90;;;;;;5086128;28;20229;-76
2021/10/24 08:56:24;;;;;;;5.50;4.33;;;9.10;99.90;;;;;;5088640;28;20613;-78
2021/10/24 08:58:52;;;;;;;5.80;4.20;;;9.10;99.90;;;;;;5092940;28;20282;-74
2021/10/24 09:01:20;;;;;;;6.20;3.90;;;9.20;99.90;;;;;;5093314;28;20258;-75
2021/10/24 09:04:05;;;;;;;4.67;4.07;;;9.20;99.90;;;;;;5076167;28;20218;-75
2021/10/24 09:06:54;;;;;;;5.43;4.03;;;9.30;99.90;;;;;;5073476;28;20210;-75
2021/10/24 09:09:24;;;;;;;5.47;4.23;;;9.50;99.90;;;;;;5066591;28;20202;-76
2021/10/24 09:11:55;;;;;;;4.60;3.90;;;9.60;99.90;;;;;;5092442;28;20205;-75
2021/10/24 09:14:51;;;;;;;6.80;4.87;;;9.80;99.90;;;;;;5092029;28;20716;-79
2021/10/24 09:17:20;;;;;;;3.60;2.83;;;10.30;99.90;;;;;;5067494;28;20681;-75
2021/10/24 09:19:51;;;;;;;5.07;3.87;;;10.60;99.90;;;;;;5092379;28;20217;-82
2021/10/24 09:22:25;;;;;;;3.40;2.77;;;10.80;99.90;;;;;;5089899;28;20684;-80
2021/10/24 09:25:12;;;;;;;5.43;2.90;;;10.90;99.90;;;;;;5088922;28;20202;-74
2021/10/24 09:27:45;;;;;;;3.47;2.67;;;11.00;99.90;;;;;;5086918;28;20897;-77
2021/10/24 09:30:14;;;;;;;3.27;2.63;;;11.30;99.90;;;;;;5089355;28;20958;-81
2021/10/24 09:32:48;;;;;;;3.20;2.47;;;11.50;99.90;;;;;;5087168;28;20203;-81
2021/10/24 09:35:17;;;;;;;8.23;3.07;;;11.70;99.90;;;;;;5080881;28;20203;-82
2021/10/24 09:37:47;;;;;;;3.40;2.80;;;11.90;99.90;;;;;;5084624;28;20214;-76
2021/10/24 09:40:15;;;;;;;2.40;2.00;;;12.00;99.90;;;;;;5089068;28;20247;-76
2021/10/24 09:42:42;;;;;;;6.73;2.13;;;12.40;99.90;;;;;;5084713;28;20256;-77
2021/10/24 09:45:12;;;;;;;2.27;1.83;;;13.20;99.90;;;;;;5088450;28;20209;-85
2021/10/24 09:47:41;;;;;;;1.65;1.55;;;14.30;99.90;;;;;;5083920;28;20206;-81
2021/10/24 09:50:10;;;;;;;3.30;1.83;;;15.50;99.90;;;;;;5087950;28;20205;-77
2021/10/24 09:52:39;;;;;;;2.17;1.70;;;15.70;99.90;;;;;;5084953;28;20203;-84
2021/10/24 09:55:16;;;;;;;4.20;1.65;;;17.90;99.90;;;;;;5086668;28;20226;-77
2021/10/24 09:57:44;;;;;;;4.03;1.75;;;19.10;99.90;;;;;;5092467;28;20223;-81
2021/10/24 10:00:12;;;;;;;2.10;1.52;;;19.00;99.90;;;;;;5077330;28;20343;-76
2021/10/24 10:02:40;;;;;;;5.70;1.63;;;17.90;99.90;;;;;;5092158;28;20263;-79
2021/10/24 10:05:08;;;;;;;2.35;1.40;;;18.40;99.90;;;;;;5092398;28;20214;-77
2021/10/24 10:07:35;;;;;;;2.60;1.33;;;17.50;99.90;;;;;;5092510;28;20627;-83
2021/10/24 10:10:04;;;;;;;1.77;1.40;;;17.40;99.90;;;;;;5092166;28;20546;-80
2021/10/24 10:12:34;;;;;;;2.00;1.45;;;15.40;99.90;;;;;;5092497;28;20198;-75
2021/10/24 10:15:04;;;;;;;2.90;1.80;;;14.00;99.90;;;;;;5091844;28;20240;-74
2021/10/24 10:17:33;;;;;;;1.42;1.10;;;14.00;99.90;;;;;;5092061;28;20627;-78
2021/10/24 10:20:20;;;;;;;3.40;1.50;;;13.80;99.90;;;;;;5092457;28;20297;-77
2021/10/24 10:23:09;;;;;;;2.00;1.17;;;13.90;99.90;;;;;;5092445;28;20258;-75
2021/10/24 10:25:38;;;;;;;4.80;1.58;;;13.80;99.90;;;;;;5091898;28;20726;-78
2021/10/24 10:28:06;;;;;;;3.10;1.50;;;14.10;99.90;;;;;;5064791;28;20201;-76
2021/10/24 10:30:36;;;;;;;4.22;1.65;;;14.30;99.90;;;;;;5092075;28;20243;-75
2021/10/24 10:33:20;;;;;;;4.10;2.33;;;14.40;99.90;;;;;;5091461;28;20202;-77
2021/10/24 10:35:53;;;;;;;2.95;2.13;;;14.30;99.90;;;;;;5083574;28;20260;-77
2021/10/24 10:38:38;;;;;;;5.75;1.27;;;14.60;99.90;;;;;;5061856;28;20301;-75
2021/10/24 10:41:11;;;;;;;3.33;1.33;;;14.70;99.90;;;;;;5067919;28;20291;-77
2021/10/24 10:43:38;;;;;;;2.47;1.42;;;14.90;99.90;;;;;;5063674;28;20206;-74
2021/10/24 10:46:07;;;;;;;4.07;1.45;;;15.00;99.90;;;;;;5079955;28;20270;-76
2021/10/24 10:48:40;;;;;;;1.95;1.60;;;15.20;99.90;;;;;;5090759;28;20615;-74
2021/10/24 10:51:16;;;;;;;1.48;1.38;;;15.30;99.90;;;;;;5089659;28;20208;-76
2021/10/24 10:54:00;;;;;;;2.28;0.88;;;15.40;99.90;;;;;;5065917;28;20704;-76
2021/10/24 10:56:53;;;;;;;2.78;1.38;;;15.50;99.90;;;;;;5090727;28;20209;-79
2021/10/24 10:59:36;;;;;;;3.25;1.52;;;15.50;99.90;;;;;;5066564;28;20243;-74
2021/10/24 11:02:28;;;;;;;2.28;1.70;;;15.80;99.90;;;;;;5089627;28;20209;-75
2021/10/24 11:04:58;;;;;;;2.65;1.63;;;15.70;99.90;;;;;;5090709;28;20265;-80
2021/10/24 11:07:42;;;;;;;1.45;1.30;;;15.70;99.90;;;;;;5091093;28;20254;-77
2021/10/24 11:10:15;;;;;;;2.40;1.40;;;15.80;99.90;;;;;;5091121;28;20209;-75
2021/10/24 11:12:49;;;;;;;2.20;1.75;;;15.90;99.90;;;;;;5091195;28;20284;-74
2021/10/24 11:15:28;;;;;;;2.80;1.40;;;15.80;99.90;;;;;;5091121;28;20263;-75
2021/10/24 11:17:56;;;;;;;2.85;1.33;;;15.80;99.90;;;;;;5059397;28;20665;-74
2021/10/24 11:20:28;;;;;;;2.88;1.58;;;16.10;99.90;;;;;;5077810;28;20210;-73
2021/10/24 11:23:01;;;;;;;4.32;1.65;;;16.20;99.90;;;;;;5082483;28;20228;-74
2021/10/24 11:25:31;;;;;;;1.83;1.45;;;16.20;99.90;;;;;;5078893;28;20283;-74
2021/10/24 11:28:12;;;;;;;4.38;1.52;;;16.30;99.90;;;;;;5083200;28;20201;-74
2021/10/24 11:30:40;;;;;;;1.55;1.13;;;16.30;99.90;;;;;;5071313;28;20206;-74
2021/10/24 11:33:08;;;;;;;2.20;1.60;;;16.60;99.90;;;;;;5082818;28;20198;-75
2021/10/24 11:35:41;;;;;;;2.67;1.63;;;16.70;99.90;;;;;;5070352;28;20235;-75
2021/10/24 11:38:12;;;;;;;1.70;1.40;;;16.70;99.90;;;;;;5076054;28;20619;-76
2021/10/24 11:40:41;;;;;;;2.83;1.70;;;16.70;99.90;;;;;;5084188;28;20219;-76
2021/10/24 11:43:12;;;;;;;1.38;1.10;;;17.00;99.90;;;;;;5078985;28;20730;-76
2021/10/24 11:45:46;;;;;;;4.03;1.50;;;16.80;99.90;;;;;;5079033;28;20213;-76
2021/10/24 11:48:17;;;;;;;1.55;1.45;;;16.70;99.90;;;;;;5082176;28;20197;-77
2021/10/24 11:51:08;;;;;;;1.63;1.45;;;16.80;99.90;;;;;;5081544;28;20214;-76
2021/10/24 11:53:38;;;;;;;2.90;1.35;;;17.00;99.90;;;;;;5074299;28;20205;-77
2021/10/24 11:56:07;;;;;;;1.65;1.30;;;17.00;99.90;;;;;;5083498;28;20205;-74
2021/10/24 11:59:04;;;;;;;4.32;1.50;;;17.10;99.90;;;;;;5090478;28;20201;-74
2021/10/24 12:01:31;;;;;;;2.63;1.48;;;17.30;99.90;;;;;;5090742;28;20206;-73
2021/10/24 12:03:59;;;;;;;1.45;1.25;;;17.40;99.90;;;;;;5089965;28;20618;-74
2021/10/24 12:06:52;;;;;;;2.78;1.83;;;17.30;99.90;;;;;;5090810;28;20205;-74
2021/10/24 12:09:36;;;;;;;2.72;1.75;;;17.40;99.90;;;;;;5090594;28;20201;-74
2021/10/24 12:12:12;;;;;;;1.83;1.13;;;17.50;99.90;;;;;;5089795;28;20201;-75
2021/10/24 12:14:52;;;;;;;2.13;1.27;;;17.50;99.90;;;;;;5090839;28;20229;-75
2021/10/24 12:17:20;;;;;;;5.93;1.77;;;17.60;99.90;;;;;;5090483;28;20206;-75
2021/10/24 12:19:49;;;;;;;4.28;1.77;;;17.70;99.90;;;;;;5090748;28;20206;-75
2021/10/24 12:22:16;;;;;;;2.47;0.98;;;17.70;99.90;;;;;;5090007;28;20293;-76
2021/10/24 12:24:47;;;;;;;1.17;0.80;;;17.70;99.90;;;;;;5090387;28;20212;-76
2021/10/24 12:27:21;;;;;;;1.90;1.13;;;17.80;99.90;;;;;;5090045;28;20205;-74
2021/10/24 12:30:06;;;;;;;1.65;0.73;;;18.00;99.90;;;;;;5090659;28;20209;-75
2021/10/24 12:32:34;;;;;;;1.80;0.75;;;18.00;99.90;;;;;;5090211;28;20291;-76
2021/10/24 12:35:09;;;;;;;1.58;0.68;;;17.80;99.90;;;;;;5089926;28;20229;-75
2021/10/24 12:37:38;;;;;;;1.63;1.00;;;17.80;99.90;;;;;;5090102;28;20216;-74
2021/10/24 12:40:23;;;;;;;5.95;1.17;;;17.70;99.90;;;;;;5089785;28;20674;-75
2021/10/24 12:43:02;;;;;;;1.15;0.73;;;17.80;99.90;;;;;;5089851;28;20247;-75
2021/10/24 12:45:31;;;;;;;1.60;0.80;;;18.00;99.90;;;;;;5090315;28;20220;-74
2021/10/24 12:48:00;;;;;;;0.88;0.68;;;18.00;99.90;;;;;;5089689;28;20201;-74
2021/10/24 12:50:32;;;;;;;2.28;0.82;;;18.20;99.90;;;;;;5090276;28;20247;-74
2021/10/24 12:53:04;;;;;;;1.88;0.95;;;18.40;99.90;;;;;;5089704;28;20205;-74
2021/10/24 12:55:31;;;;;;;1.50;0.50;;;18.40;99.90;;;;;;5089685;28;20229;-74
2021/10/24 12:58:00;;;;;;;1.15;0.70;;;18.50;99.90;;;;;;5089900;28;20210;-74
2021/10/24 13:00:27;;;;;;;1.75;0.80;;;18.50;99.90;;;;;;5090044;28;20220;-74
2021/10/24 13:02:56;;;;;;;9.65;1.17;;;18.40;99.90;;;;;;5093238;28;20330;-74
2021/10/24 13:05:24;;;;;;;1.60;0.80;;;18.40;99.90;;;;;;5079388;28;20214;-74